TAP1040 LPPT-LEBL
Flight info
| Callsign | TAP1040 |
|---|---|
| Flight time | N/A |
| Altitude | 36000 |
| Route | ORVED DCT UREDI DCT DIPOL DCT RBO DCT PINAR DCT SEGRE DCT BRITO DCT PISUS DCT PONEN T600 CASPE |
| Aircraft | A319/M-SDE3FGHIRWY/LB1 |
Departure
| Time | 2026-05-07 22:04 |
|---|---|
| Airport | Lisbon Humberto Delgado Airport (LPPT) |
Arrival
| Time | N/A |
|---|---|
| Airport | Josep Tarradellas Barcelona-El Prat Airport (LEBL) |
| Time | Latitude | Longitude | Altitude | Speed | Heading |
|---|---|---|---|---|---|
| 2026-05-07 21:33 | 38.76788 | -9.13042 | 333 ft | 0 kts | 78° |
| 2026-05-07 21:46 | 38.76782 | -9.13070 | 336 ft | 4 kts | 65° |
| 2026-05-07 21:47 | 38.76768 | -9.13097 | 333 ft | 4 kts | 31° |
| 2026-05-07 21:47 | 38.76750 | -9.13104 | 336 ft | 1 kts | 348° |
| 2026-05-07 21:47 | 38.76746 | -9.13103 | 336 ft | 0 kts | 348° |
| 2026-05-07 21:57 | 38.76759 | -9.13106 | 334 ft | 4 kts | 348° |
| 2026-05-07 21:58 | 38.76781 | -9.13136 | 337 ft | 6 kts | 279° |
| 2026-05-07 21:58 | 38.76774 | -9.13207 | 340 ft | 10 kts | 258° |
| 2026-05-07 21:58 | 38.76756 | -9.13313 | 346 ft | 13 kts | 258° |
| 2026-05-07 21:58 | 38.76720 | -9.13407 | 351 ft | 12 kts | 217° |
| 2026-05-07 21:59 | 38.76655 | -9.13482 | 347 ft | 13 kts | 251° |
| 2026-05-07 21:59 | 38.76635 | -9.13603 | 345 ft | 16 kts | 258° |
| 2026-05-07 21:59 | 38.76612 | -9.13746 | 350 ft | 16 kts | 258° |
| 2026-05-07 21:59 | 38.76588 | -9.13892 | 346 ft | 17 kts | 257° |
| 2026-05-07 22:00 | 38.76559 | -9.14011 | 356 ft | 12 kts | 233° |
| 2026-05-07 22:00 | 38.76505 | -9.14096 | 354 ft | 13 kts | 239° |
| 2026-05-07 22:00 | 38.76509 | -9.14219 | 346 ft | 16 kts | 292° |
| 2026-05-07 22:00 | 38.76538 | -9.14307 | 336 ft | 4 kts | 294° |
| 2026-05-07 22:01 | 38.76541 | -9.14315 | 336 ft | 1 kts | 294° |
| 2026-05-07 22:01 | 38.76550 | -9.14342 | 333 ft | 7 kts | 294° |
| 2026-05-07 22:01 | 38.76579 | -9.14412 | 335 ft | 9 kts | 315° |
| 2026-05-07 22:01 | 38.76613 | -9.14402 | 334 ft | 0 kts | 23° |
| 2026-05-07 22:02 | 38.76614 | -9.14401 | 334 ft | 1 kts | 23° |
| 2026-05-07 22:02 | 38.76732 | -9.14340 | 335 ft | 52 kts | 22° |
| 2026-05-07 22:02 | 38.77299 | -9.14038 | 361 ft | 122 kts | 22° |
| 2026-05-07 22:03 | 38.78262 | -9.13534 | 412 ft | 167 kts | 26° |
| 2026-05-07 22:03 | 38.79237 | -9.12943 | 768 ft | 145 kts | 33° |
| 2026-05-07 22:03 | 38.80084 | -9.12342 | 856 ft | 142 kts | 41° |
| 2026-05-07 22:03 | 38.80923 | -9.11580 | 794 ft | 148 kts | 45° |
| 2026-05-07 22:04 | 38.81717 | -9.10738 | 909 ft | 150 kts | 50° |
| 2026-05-07 22:04 | 38.82501 | -9.09840 | 1011 ft | 153 kts | 34° |
| 2026-05-07 22:04 | 38.83387 | -9.09053 | 1198 ft | 156 kts | 47° |
| 2026-05-07 22:04 | 38.83885 | -9.07829 | 1462 ft | 158 kts | 78° |